sensor_id;sensor_type;location;lat;lon;timestamp;temperature;humidity
2723;DHT22;1369;53.216;10.396;2023-08-17T00:00:34;18.80;99.90
2723;DHT22;1369;53.216;10.396;2023-08-17T00:03:00;18.80;99.90
2723;DHT22;1369;53.216;10.396;2023-08-17T00:05:27;18.80;99.90
2723;DHT22;1369;53.216;10.396;2023-08-17T00:07:52;18.70;99.90
2723;DHT22;1369;53.216;10.396;2023-08-17T00:10:18;18.70;99.90
2723;DHT22;1369;53.216;10.396;2023-08-17T00:12:44;18.60;99.90
2723;DHT22;1369;53.216;10.396;2023-08-17T00:15:10;18.60;99.90
2723;DHT22;1369;53.216;10.396;2023-08-17T00:17:35;18.60;99.90
2723;DHT22;1369;53.216;10.396;2023-08-17T00:20:01;18.60;99.90
2723;DHT22;1369;53.216;10.396;2023-08-17T00:22:30;18.60;99.90
2723;DHT22;1369;53.216;10.396;2023-08-17T00:24:56;18.60;99.90
2723;DHT22;1369;53.216;10.396;2023-08-17T00:27:21;18.50;99.90
2723;DHT22;1369;53.216;10.396;2023-08-17T00:29:47;18.50;99.90
2723;DHT22;1369;53.216;10.396;2023-08-17T00:32:13;18.50;99.90
2723;DHT22;1369;53.216;10.396;2023-08-17T00:34:38;18.50;99.90
2723;DHT22;1369;53.216;10.396;2023-08-17T00:37:04;18.50;99.90
2723;DHT22;1369;53.216;10.396;2023-08-17T00:39:29;18.50;99.90
2723;DHT22;1369;53.216;10.396;2023-08-17T00:41:55;18.50;99.90
2723;DHT22;1369;53.216;10.396;2023-08-17T00:44:21;18.50;99.90
2723;DHT22;1369;53.216;10.396;2023-08-17T00:46:46;18.50;99.90
2723;DHT22;1369;53.216;10.396;2023-08-17T00:49:12;18.40;99.90
2723;DHT22;1369;53.216;10.396;2023-08-17T00:51:38;18.40;99.90
2723;DHT22;1369;53.216;10.396;2023-08-17T00:54:04;18.40;99.90
2723;DHT22;1369;53.216;10.396;2023-08-17T00:56:30;18.40;99.90
2723;DHT22;1369;53.216;10.396;2023-08-17T00:58:56;18.40;99.90
2723;DHT22;1369;53.216;10.396;2023-08-17T01:01:22;18.40;99.90
2723;DHT22;1369;53.216;10.396;2023-08-17T01:03:48;18.40;99.90
2723;DHT22;1369;53.216;10.396;2023-08-17T01:06:13;18.40;99.90
2723;DHT22;1369;53.216;10.396;2023-08-17T01:08:41;18.50;99.90
2723;DHT22;1369;53.216;10.396;2023-08-17T01:16:20;18.50;99.90
2723;DHT22;1369;53.216;10.396;2023-08-17T01:18:48;18.50;99.90
2723;DHT22;1369;53.216;10.396;2023-08-17T01:21:17;18.60;99.90
2723;DHT22;1369;53.216;10.396;2023-08-17T01:23:48;18.50;99.90
2723;DHT22;1369;53.216;10.396;2023-08-17T01:26:14;18.60;99.90
2723;DHT22;1369;53.216;10.396;2023-08-17T01:28:43;18.60;99.90
2723;DHT22;1369;53.216;10.396;2023-08-17T01:31:17;18.60;99.90
2723;DHT22;1369;53.216;10.396;2023-08-17T01:33:48;18.60;99.90
2723;DHT22;1369;53.216;10.396;2023-08-17T01:36:19;18.60;99.90
2723;DHT22;1369;53.216;10.396;2023-08-17T01:38:46;18.60;99.90
2723;DHT22;1369;53.216;10.396;2023-08-17T01:41:13;18.60;99.90
2723;DHT22;1369;53.216;10.396;2023-08-17T01:43:44;18.60;99.90
2723;DHT22;1369;53.216;10.396;2023-08-17T01:46:16;18.60;99.90
2723;DHT22;1369;53.216;10.396;2023-08-17T01:48:42;18.60;99.90
2723;DHT22;1369;53.216;10.396;2023-08-17T01:51:09;18.50;99.90
2723;DHT22;1369;53.216;10.396;2023-08-17T01:53:35;18.50;99.90
2723;DHT22;1369;53.216;10.396;2023-08-17T01:56:01;18.60;99.90
2723;DHT22;1369;53.216;10.396;2023-08-17T01:58:26;18.60;99.90
2723;DHT22;1369;53.216;10.396;2023-08-17T02:00:52;18.50;99.90
2723;DHT22;1369;53.216;10.396;2023-08-17T02:03:18;18.50;99.90
2723;DHT22;1369;53.216;10.396;2023-08-17T02:05:47;18.50;99.90
2723;DHT22;1369;53.216;10.396;2023-08-17T02:08:12;18.50;99.90
2723;DHT22;1369;53.216;10.396;2023-08-17T02:10:38;18.50;99.90
2723;DHT22;1369;53.216;10.396;2023-08-17T02:13:04;18.50;99.90
2723;DHT22;1369;53.216;10.396;2023-08-17T02:15:30;18.40;99.90
2723;DHT22;1369;53.216;10.396;2023-08-17T02:18:01;18.50;99.90
2723;DHT22;1369;53.216;10.396;2023-08-17T02:20:27;18.50;99.90
2723;DHT22;1369;53.216;10.396;2023-08-17T02:22:52;18.50;99.90
2723;DHT22;1369;53.216;10.396;2023-08-17T02:25:18;18.50;99.90
2723;DHT22;1369;53.216;10.396;2023-08-17T02:27:43;18.50;99.90
2723;DHT22;1369;53.216;10.396;2023-08-17T02:30:09;18.50;99.90
2723;DHT22;1369;53.216;10.396;2023-08-17T02:32:35;18.50;99.90
2723;DHT22;1369;53.216;10.396;2023-08-17T02:35:01;18.40;99.90
2723;DHT22;1369;53.216;10.396;2023-08-17T02:37:27;18.40;99.90
2723;DHT22;1369;53.216;10.396;2023-08-17T02:39:52;18.50;99.90
2723;DHT22;1369;53.216;10.396;2023-08-17T02:42:18;18.50;99.90
2723;DHT22;1369;53.216;10.396;2023-08-17T02:44:44;18.40;99.90
2723;DHT22;1369;53.216;10.396;2023-08-17T02:47:10;18.50;99.90
2723;DHT22;1369;53.216;10.396;2023-08-17T02:49:35;18.50;99.90
2723;DHT22;1369;53.216;10.396;2023-08-17T02:52:01;18.50;99.90
2723;DHT22;1369;53.216;10.396;2023-08-17T02:54:26;18.40;99.90
2723;DHT22;1369;53.216;10.396;2023-08-17T02:56:52;18.40;99.90
2723;DHT22;1369;53.216;10.396;2023-08-17T02:59:18;18.40;99.90
2723;DHT22;1369;53.216;10.396;2023-08-17T03:01:44;18.40;99.90
2723;DHT22;1369;53.216;10.396;2023-08-17T03:04:10;18.40;99.90
2723;DHT22;1369;53.216;10.396;2023-08-17T03:06:36;18.40;99.90
2723;DHT22;1369;53.216;10.396;2023-08-17T03:09:02;18.40;99.90
2723;DHT22;1369;53.216;10.396;2023-08-17T03:11:27;18.40;99.90
2723;DHT22;1369;53.216;10.396;2023-08-17T03:13:53;18.40;99.90
2723;DHT22;1369;53.216;10.396;2023-08-17T03:16:25;18.40;99.90
2723;DHT22;1369;53.216;10.396;2023-08-17T03:18:51;18.30;99.90
2723;DHT22;1369;53.216;10.396;2023-08-17T03:21:16;18.30;99.90
2723;DHT22;1369;53.216;10.396;2023-08-17T03:23:44;18.40;99.90
2723;DHT22;1369;53.216;10.396;2023-08-17T03:26:09;18.40;99.90
2723;DHT22;1369;53.216;10.396;2023-08-17T03:28:35;18.40;99.90
2723;DHT22;1369;53.216;10.396;2023-08-17T03:31:02;18.40;99.90
2723;DHT22;1369;53.216;10.396;2023-08-17T03:33:28;18.40;99.90
2723;DHT22;1369;53.216;10.396;2023-08-17T03:35:54;18.40;99.90
2723;DHT22;1369;53.216;10.396;2023-08-17T03:38:19;18.30;99.90
2723;DHT22;1369;53.216;10.396;2023-08-17T03:40:46;18.30;99.90
2723;DHT22;1369;53.216;10.396;2023-08-17T03:43:11;18.30;99.90
2723;DHT22;1369;53.216;10.396;2023-08-17T03:45:37;18.40;99.90
2723;DHT22;1369;53.216;10.396;2023-08-17T03:48:03;18.40;99.90
2723;DHT22;1369;53.216;10.396;2023-08-17T03:50:29;18.40;99.90
2723;DHT22;1369;53.216;10.396;2023-08-17T03:52:55;18.40;99.90
2723;DHT22;1369;53.216;10.396;2023-08-17T03:55:20;18.40;99.90
2723;DHT22;1369;53.216;10.396;2023-08-17T03:57:46;18.40;99.90
2723;DHT22;1369;53.216;10.396;2023-08-17T04:00:12;18.40;99.90
2723;DHT22;1369;53.216;10.396;2023-08-17T04:02:38;18.40;99.90
2723;DHT22;1369;53.216;10.396;2023-08-17T04:05:04;18.40;99.90
2723;DHT22;1369;53.216;10.396;2023-08-17T04:07:29;18.30;99.90
2723;DHT22;1369;53.216;10.396;2023-08-17T04:09:55;18.20;99.90
2723;DHT22;1369;53.216;10.396;2023-08-17T04:12:21;18.20;99.90
2723;DHT22;1369;53.216;10.396;2023-08-17T04:14:46;18.20;99.90
2723;DHT22;1369;53.216;10.396;2023-08-17T04:17:12;18.20;99.90
2723;DHT22;1369;53.216;10.396;2023-08-17T04:19:38;18.10;99.90
2723;DHT22;1369;53.216;10.396;2023-08-17T04:22:03;18.10;99.90
2723;DHT22;1369;53.216;10.396;2023-08-17T04:24:29;18.10;99.90
2723;DHT22;1369;53.216;10.396;2023-08-17T04:26:55;18.10;99.90
2723;DHT22;1369;53.216;10.396;2023-08-17T04:29:21;18.10;99.90
2723;DHT22;1369;53.216;10.396;2023-08-17T04:31:46;18.00;99.90
2723;DHT22;1369;53.216;10.396;2023-08-17T04:34:12;18.00;99.90
2723;DHT22;1369;53.216;10.396;2023-08-17T04:36:38;18.00;99.90
2723;DHT22;1369;53.216;10.396;2023-08-17T04:39:04;17.90;99.90
2723;DHT22;1369;53.216;10.396;2023-08-17T04:41:30;17.80;99.90
2723;DHT22;1369;53.216;10.396;2023-08-17T04:43:56;17.80;99.90
2723;DHT22;1369;53.216;10.396;2023-08-17T04:46:21;17.70;99.90
2723;DHT22;1369;53.216;10.396;2023-08-17T04:48:47;17.70;99.90
2723;DHT22;1369;53.216;10.396;2023-08-17T04:51:13;17.70;99.90
2723;DHT22;1369;53.216;10.396;2023-08-17T04:53:40;17.70;99.90
2723;DHT22;1369;53.216;10.396;2023-08-17T04:56:05;17.60;99.90
2723;DHT22;1369;53.216;10.396;2023-08-17T04:58:31;17.60;99.90
2723;DHT22;1369;53.216;10.396;2023-08-17T05:00:58;17.60;99.90
2723;DHT22;1369;53.216;10.396;2023-08-17T05:03:24;17.50;99.90
2723;DHT22;1369;53.216;10.396;2023-08-17T05:05:52;17.40;99.90
2723;DHT22;1369;53.216;10.396;2023-08-17T05:08:17;17.30;99.90
2723;DHT22;1369;53.216;10.396;2023-08-17T05:10:43;17.20;99.90
2723;DHT22;1369;53.216;10.396;2023-08-17T05:13:09;17.20;99.90
2723;DHT22;1369;53.216;10.396;2023-08-17T05:15:34;17.30;99.90
2723;DHT22;1369;53.216;10.396;2023-08-17T05:18:00;17.30;99.90
2723;DHT22;1369;53.216;10.396;2023-08-17T05:20:25;17.40;99.90
2723;DHT22;1369;53.216;10.396;2023-08-17T05:22:51;17.50;99.90
2723;DHT22;1369;53.216;10.396;2023-08-17T05:25:17;17.50;99.90
2723;DHT22;1369;53.216;10.396;2023-08-17T05:27:42;17.50;99.90
2723;DHT22;1369;53.216;10.396;2023-08-17T05:30:08;17.50;99.90
2723;DHT22;1369;53.216;10.396;2023-08-17T05:32:34;17.50;99.90
2723;DHT22;1369;53.216;10.396;2023-08-17T05:35:00;17.40;99.90
2723;DHT22;1369;53.216;10.396;2023-08-17T05:37:25;17.40;99.90
2723;DHT22;1369;53.216;10.396;2023-08-17T05:39:51;17.40;99.90
2723;DHT22;1369;53.216;10.396;2023-08-17T05:42:17;17.50;99.90
2723;DHT22;1369;53.216;10.396;2023-08-17T05:44:42;17.40;99.90
2723;DHT22;1369;53.216;10.396;2023-08-17T05:47:08;17.40;99.90
2723;DHT22;1369;53.216;10.396;2023-08-17T05:49:34;17.40;99.90
2723;DHT22;1369;53.216;10.396;2023-08-17T05:52:00;17.30;99.90
2723;DHT22;1369;53.216;10.396;2023-08-17T05:54:25;17.30;99.90
2723;DHT22;1369;53.216;10.396;2023-08-17T05:56:51;17.30;99.90
2723;DHT22;1369;53.216;10.396;2023-08-17T05:59:17;17.30;99.90
2723;DHT22;1369;53.216;10.396;2023-08-17T06:01:42;17.30;99.90
2723;DHT22;1369;53.216;10.396;2023-08-17T06:04:08;17.20;99.90
2723;DHT22;1369;53.216;10.396;2023-08-17T06:06:34;17.20;99.90
2723;DHT22;1369;53.216;10.396;2023-08-17T06:08:59;17.10;99.90
2723;DHT22;1369;53.216;10.396;2023-08-17T06:11:27;17.20;99.90
2723;DHT22;1369;53.216;10.396;2023-08-17T06:13:53;17.20;99.90
2723;DHT22;1369;53.216;10.396;2023-08-17T06:16:19;17.10;99.90
2723;DHT22;1369;53.216;10.396;2023-08-17T06:18:44;17.00;99.90
2723;DHT22;1369;53.216;10.396;2023-08-17T06:21:10;17.00;99.90
2723;DHT22;1369;53.216;10.396;2023-08-17T06:23:35;16.90;99.90
2723;DHT22;1369;53.216;10.396;2023-08-17T06:26:01;16.80;99.90
2723;DHT22;1369;53.216;10.396;2023-08-17T06:28:27;16.70;99.90
2723;DHT22;1369;53.216;10.396;2023-08-17T06:30:55;16.50;99.90
2723;DHT22;1369;53.216;10.396;2023-08-17T06:33:21;16.40;99.90
2723;DHT22;1369;53.216;10.396;2023-08-17T06:35:48;16.20;99.90
2723;DHT22;1369;53.216;10.396;2023-08-17T06:38:14;16.10;99.90
2723;DHT22;1369;53.216;10.396;2023-08-17T06:40:40;16.10;99.90
2723;DHT22;1369;53.216;10.396;2023-08-17T06:43:06;16.20;99.90
2723;DHT22;1369;53.216;10.396;2023-08-17T06:45:32;16.30;99.90
2723;DHT22;1369;53.216;10.396;2023-08-17T06:47:58;16.40;99.90
2723;DHT22;1369;53.216;10.396;2023-08-17T06:50:24;16.40;99.90
2723;DHT22;1369;53.216;10.396;2023-08-17T06:52:50;16.30;99.90
2723;DHT22;1369;53.216;10.396;2023-08-17T06:55:16;16.30;99.90
2723;DHT22;1369;53.216;10.396;2023-08-17T06:57:42;16.10;99.90
2723;DHT22;1369;53.216;10.396;2023-08-17T07:00:08;16.20;99.90
2723;DHT22;1369;53.216;10.396;2023-08-17T07:02:36;16.00;99.90
2723;DHT22;1369;53.216;10.396;2023-08-17T07:05:02;16.10;99.90
2723;DHT22;1369;53.216;10.396;2023-08-17T07:07:29;15.80;99.90
2723;DHT22;1369;53.216;10.396;2023-08-17T07:09:57;15.90;99.90
2723;DHT22;1369;53.216;10.396;2023-08-17T07:12:23;16.00;99.90
2723;DHT22;1369;53.216;10.396;2023-08-17T07:14:49;16.00;99.90
2723;DHT22;1369;53.216;10.396;2023-08-17T07:17:15;16.10;99.90
2723;DHT22;1369;53.216;10.396;2023-08-17T07:19:41;16.20;99.90
2723;DHT22;1369;53.216;10.396;2023-08-17T07:22:06;16.20;99.90
2723;DHT22;1369;53.216;10.396;2023-08-17T07:24:32;16.10;99.90
2723;DHT22;1369;53.216;10.396;2023-08-17T07:26:57;16.00;99.90
2723;DHT22;1369;53.216;10.396;2023-08-17T07:29:23;16.10;99.90
2723;DHT22;1369;53.216;10.396;2023-08-17T07:31:49;16.10;99.90
2723;DHT22;1369;53.216;10.396;2023-08-17T07:34:14;16.20;99.90
2723;DHT22;1369;53.216;10.396;2023-08-17T07:36:40;16.20;99.90
2723;DHT22;1369;53.216;10.396;2023-08-17T07:39:05;16.20;99.90
2723;DHT22;1369;53.216;10.396;2023-08-17T07:41:32;16.20;99.90
2723;DHT22;1369;53.216;10.396;2023-08-17T07:43:58;16.30;99.90
2723;DHT22;1369;53.216;10.396;2023-08-17T07:46:23;16.30;99.90
2723;DHT22;1369;53.216;10.396;2023-08-17T07:48:49;16.30;99.90
2723;DHT22;1369;53.216;10.396;2023-08-17T07:51:15;16.30;99.90
2723;DHT22;1369;53.216;10.396;2023-08-17T07:53:40;16.30;99.90
2723;DHT22;1369;53.216;10.396;2023-08-17T07:56:06;16.20;99.90
2723;DHT22;1369;53.216;10.396;2023-08-17T07:58:31;16.20;99.90
2723;DHT22;1369;53.216;10.396;2023-08-17T08:00:57;16.10;99.90
2723;DHT22;1369;53.216;10.396;2023-08-17T08:03:23;16.20;99.90
2723;DHT22;1369;53.216;10.396;2023-08-17T08:05:48;16.20;99.90
2723;DHT22;1369;53.216;10.396;2023-08-17T08:08:14;16.30;99.90
2723;DHT22;1369;53.216;10.396;2023-08-17T08:10:40;16.30;99.90
2723;DHT22;1369;53.216;10.396;2023-08-17T08:13:06;16.30;99.90
2723;DHT22;1369;53.216;10.396;2023-08-17T08:15:33;16.20;99.90
2723;DHT22;1369;53.216;10.396;2023-08-17T08:17:58;16.20;99.90
2723;DHT22;1369;53.216;10.396;2023-08-17T08:20:24;16.20;99.90
2723;DHT22;1369;53.216;10.396;2023-08-17T08:22:50;16.20;99.90
2723;DHT22;1369;53.216;10.396;2023-08-17T08:25:15;16.20;99.90
2723;DHT22;1369;53.216;10.396;2023-08-17T08:27:41;16.30;99.90
2723;DHT22;1369;53.216;10.396;2023-08-17T08:30:07;16.40;99.90
2723;DHT22;1369;53.216;10.396;2023-08-17T08:32:33;16.50;99.90
2723;DHT22;1369;53.216;10.396;2023-08-17T08:34:58;16.50;99.90
2723;DHT22;1369;53.216;10.396;2023-08-17T08:37:24;16.60;99.90
2723;DHT22;1369;53.216;10.396;2023-08-17T08:39:54;16.60;99.90
2723;DHT22;1369;53.216;10.396;2023-08-17T08:42:21;16.60;99.90
2723;DHT22;1369;53.216;10.396;2023-08-17T08:44:47;16.70;99.90
2723;DHT22;1369;53.216;10.396;2023-08-17T08:47:14;16.70;99.90
2723;DHT22;1369;53.216;10.396;2023-08-17T08:49:40;16.80;99.90
2723;DHT22;1369;53.216;10.396;2023-08-17T08:52:13;16.80;99.90
2723;DHT22;1369;53.216;10.396;2023-08-17T08:54:43;16.90;99.90
2723;DHT22;1369;53.216;10.396;2023-08-17T08:57:13;16.90;99.90
2723;DHT22;1369;53.216;10.396;2023-08-17T08:59:41;16.90;99.90
2723;DHT22;1369;53.216;10.396;2023-08-17T09:02:15;17.00;99.90
2723;DHT22;1369;53.216;10.396;2023-08-17T09:04:43;17.00;99.90
2723;DHT22;1369;53.216;10.396;2023-08-17T09:07:09;17.00;99.90
2723;DHT22;1369;53.216;10.396;2023-08-17T09:09:36;17.00;99.90
2723;DHT22;1369;53.216;10.396;2023-08-17T09:12:04;17.10;99.90
2723;DHT22;1369;53.216;10.396;2023-08-17T09:14:30;17.20;99.90
2723;DHT22;1369;53.216;10.396;2023-08-17T09:16:56;17.20;99.90
2723;DHT22;1369;53.216;10.396;2023-08-17T09:19:24;17.20;99.90
2723;DHT22;1369;53.216;10.396;2023-08-17T09:21:50;17.30;99.90
2723;DHT22;1369;53.216;10.396;2023-08-17T09:24:16;17.30;99.90
2723;DHT22;1369;53.216;10.396;2023-08-17T09:26:42;17.30;99.90
2723;DHT22;1369;53.216;10.396;2023-08-17T09:29:20;17.30;99.90
2723;DHT22;1369;53.216;10.396;2023-08-17T09:31:46;17.30;99.90
2723;DHT22;1369;53.216;10.396;2023-08-17T09:34:14;17.30;99.90
2723;DHT22;1369;53.216;10.396;2023-08-17T09:36:41;17.10;99.90
2723;DHT22;1369;53.216;10.396;2023-08-17T09:39:06;17.10;99.90
2723;DHT22;1369;53.216;10.396;2023-08-17T09:41:38;17.20;99.90
2723;DHT22;1369;53.216;10.396;2023-08-17T09:44:06;17.10;99.90
2723;DHT22;1369;53.216;10.396;2023-08-17T09:46:32;17.20;99.90
2723;DHT22;1369;53.216;10.396;2023-08-17T09:48:57;17.20;99.90
2723;DHT22;1369;53.216;10.396;2023-08-17T09:51:24;17.10;99.90
2723;DHT22;1369;53.216;10.396;2023-08-17T09:53:53;17.10;99.90
2723;DHT22;1369;53.216;10.396;2023-08-17T09:56:21;17.10;99.90
2723;DHT22;1369;53.216;10.396;2023-08-17T09:58:48;17.10;99.90
2723;DHT22;1369;53.216;10.396;2023-08-17T10:01:15;17.00;99.90
2723;DHT22;1369;53.216;10.396;2023-08-17T10:03:43;17.00;99.90
2723;DHT22;1369;53.216;10.396;2023-08-17T10:06:13;17.00;99.90
2723;DHT22;1369;53.216;10.396;2023-08-17T10:08:43;16.90;99.90
2723;DHT22;1369;53.216;10.396;2023-08-17T10:11:10;17.00;99.90
2723;DHT22;1369;53.216;10.396;2023-08-17T10:13:42;17.00;99.90
2723;DHT22;1369;53.216;10.396;2023-08-17T10:16:28;17.00;99.90
2723;DHT22;1369;53.216;10.396;2023-08-17T10:19:05;17.00;99.90
2723;DHT22;1369;53.216;10.396;2023-08-17T10:21:39;17.00;99.90
2723;DHT22;1369;53.216;10.396;2023-08-17T10:24:06;17.00;99.90
2723;DHT22;1369;53.216;10.396;2023-08-17T10:26:33;17.00;99.90
2723;DHT22;1369;53.216;10.396;2023-08-17T10:28:59;16.90;99.90
2723;DHT22;1369;53.216;10.396;2023-08-17T10:31:27;16.80;99.90
2723;DHT22;1369;53.216;10.396;2023-08-17T10:33:53;16.90;99.90
2723;DHT22;1369;53.216;10.396;2023-08-17T10:36:19;16.70;99.90
2723;DHT22;1369;53.216;10.396;2023-08-17T10:38:46;16.70;99.90
2723;DHT22;1369;53.216;10.396;2023-08-17T10:41:13;16.60;99.90
2723;DHT22;1369;53.216;10.396;2023-08-17T10:46:21;16.50;99.90
2723;DHT22;1369;53.216;10.396;2023-08-17T10:48:46;16.50;99.90
2723;DHT22;1369;53.216;10.396;2023-08-17T10:51:12;16.50;99.90
2723;DHT22;1369;53.216;10.396;2023-08-17T10:53:40;16.60;99.90
2723;DHT22;1369;53.216;10.396;2023-08-17T10:56:13;16.60;99.90
2723;DHT22;1369;53.216;10.396;2023-08-17T10:58:39;16.60;99.90
2723;DHT22;1369;53.216;10.396;2023-08-17T11:01:06;16.60;99.90
2723;DHT22;1369;53.216;10.396;2023-08-17T11:03:32;16.60;99.90
2723;DHT22;1369;53.216;10.396;2023-08-17T11:06:17;16.60;99.90
2723;DHT22;1369;53.216;10.396;2023-08-17T11:08:54;16.60;99.90
2723;DHT22;1369;53.216;10.396;2023-08-17T11:11:21;16.50;99.90
2723;DHT22;1369;53.216;10.396;2023-08-17T11:13:48;16.70;99.90
2723;DHT22;1369;53.216;10.396;2023-08-17T11:16:16;16.80;99.90
2723;DHT22;1369;53.216;10.396;2023-08-17T11:18:42;16.70;99.90
2723;DHT22;1369;53.216;10.396;2023-08-17T11:21:09;16.70;99.90
2723;DHT22;1369;53.216;10.396;2023-08-17T11:23:37;16.70;99.90
2723;DHT22;1369;53.216;10.396;2023-08-17T11:26:03;16.70;99.90
2723;DHT22;1369;53.216;10.396;2023-08-17T11:28:32;16.70;99.90
2723;DHT22;1369;53.216;10.396;2023-08-17T11:31:12;16.70;99.90
2723;DHT22;1369;53.216;10.396;2023-08-17T11:33:39;16.70;99.90
2723;DHT22;1369;53.216;10.396;2023-08-17T11:36:07;16.90;99.90
2723;DHT22;1369;53.216;10.396;2023-08-17T11:38:34;16.90;99.90
2723;DHT22;1369;53.216;10.396;2023-08-17T11:41:00;17.00;99.90
2723;DHT22;1369;53.216;10.396;2023-08-17T11:43:30;17.10;99.90
2723;DHT22;1369;53.216;10.396;2023-08-17T11:45:57;17.10;99.90
2723;DHT22;1369;53.216;10.396;2023-08-17T11:48:24;16.90;99.90
2723;DHT22;1369;53.216;10.396;2023-08-17T11:50:50;16.90;99.90
2723;DHT22;1369;53.216;10.396;2023-08-17T11:53:16;16.80;99.90
2723;DHT22;1369;53.216;10.396;2023-08-17T11:55:41;16.90;99.90
2723;DHT22;1369;53.216;10.396;2023-08-17T11:58:07;17.00;99.90
2723;DHT22;1369;53.216;10.396;2023-08-17T12:00:41;17.10;99.90
2723;DHT22;1369;53.216;10.396;2023-08-17T12:03:07;16.90;99.90
2723;DHT22;1369;53.216;10.396;2023-08-17T12:05:33;17.00;99.90
2723;DHT22;1369;53.216;10.396;2023-08-17T12:07:59;17.20;99.90
2723;DHT22;1369;53.216;10.396;2023-08-17T12:10:31;17.30;99.90
2723;DHT22;1369;53.216;10.396;2023-08-17T12:13:00;17.40;99.90
2723;DHT22;1369;53.216;10.396;2023-08-17T12:15:33;17.40;99.90
2723;DHT22;1369;53.216;10.396;2023-08-17T12:18:02;17.40;99.90
2723;DHT22;1369;53.216;10.396;2023-08-17T12:20:29;17.40;99.90
2723;DHT22;1369;53.216;10.396;2023-08-17T12:22:57;17.40;99.90
2723;DHT22;1369;53.216;10.396;2023-08-17T12:25:23;17.40;99.90
2723;DHT22;1369;53.216;10.396;2023-08-17T12:27:49;17.40;99.90
2723;DHT22;1369;53.216;10.396;2023-08-17T12:30:25;17.40;99.90
2723;DHT22;1369;53.216;10.396;2023-08-17T12:32:51;17.60;99.90
2723;DHT22;1369;53.216;10.396;2023-08-17T12:35:17;17.60;99.90
2723;DHT22;1369;53.216;10.396;2023-08-17T12:37:43;17.60;99.90
2723;DHT22;1369;53.216;10.396;2023-08-17T12:40:09;17.70;99.90
2723;DHT22;1369;53.216;10.396;2023-08-17T12:42:35;17.50;99.90
2723;DHT22;1369;53.216;10.396;2023-08-17T12:45:01;17.50;99.90
2723;DHT22;1369;53.216;10.396;2023-08-17T12:47:26;17.40;99.90
2723;DHT22;1369;53.216;10.396;2023-08-17T12:49:52;17.30;99.90
2723;DHT22;1369;53.216;10.396;2023-08-17T12:52:18;17.30;99.90
2723;DHT22;1369;53.216;10.396;2023-08-17T12:54:43;17.30;99.90
2723;DHT22;1369;53.216;10.396;2023-08-17T12:57:09;17.50;99.90
2723;DHT22;1369;53.216;10.396;2023-08-17T12:59:34;17.60;99.90
2723;DHT22;1369;53.216;10.396;2023-08-17T13:02:00;17.70;99.90
2723;DHT22;1369;53.216;10.396;2023-08-17T13:04:25;17.70;99.90
2723;DHT22;1369;53.216;10.396;2023-08-17T13:06:51;17.80;99.90
2723;DHT22;1369;53.216;10.396;2023-08-17T13:09:17;17.70;99.90
2723;DHT22;1369;53.216;10.396;2023-08-17T13:11:44;17.60;99.90
2723;DHT22;1369;53.216;10.396;2023-08-17T13:14:11;17.60;99.90
2723;DHT22;1369;53.216;10.396;2023-08-17T13:16:37;17.60;99.90
2723;DHT22;1369;53.216;10.396;2023-08-17T13:19:02;17.50;99.90
2723;DHT22;1369;53.216;10.396;2023-08-17T13:21:28;17.40;99.90
2723;DHT22;1369;53.216;10.396;2023-08-17T13:23:54;17.30;99.90
2723;DHT22;1369;53.216;10.396;2023-08-17T13:26:21;17.30;99.90
2723;DHT22;1369;53.216;10.396;2023-08-17T13:28:47;17.20;99.90
2723;DHT22;1369;53.216;10.396;2023-08-17T13:31:12;17.20;99.90
2723;DHT22;1369;53.216;10.396;2023-08-17T13:33:38;17.20;99.90
2723;DHT22;1369;53.216;10.396;2023-08-17T13:36:04;17.10;99.90
2723;DHT22;1369;53.216;10.396;2023-08-17T13:38:29;17.10;99.90
2723;DHT22;1369;53.216;10.396;2023-08-17T13:40:55;17.20;99.90
2723;DHT22;1369;53.216;10.396;2023-08-17T13:43:21;17.30;99.90
2723;DHT22;1369;53.216;10.396;2023-08-17T13:45:46;17.30;99.90
2723;DHT22;1369;53.216;10.396;2023-08-17T13:48:12;17.30;99.90
2723;DHT22;1369;53.216;10.396;2023-08-17T13:50:38;17.30;99.90
2723;DHT22;1369;53.216;10.396;2023-08-17T13:53:04;17.30;99.90
2723;DHT22;1369;53.216;10.396;2023-08-17T13:55:30;17.10;99.90
2723;DHT22;1369;53.216;10.396;2023-08-17T13:57:56;17.00;99.90
2723;DHT22;1369;53.216;10.396;2023-08-17T14:00:22;17.10;99.90
2723;DHT22;1369;53.216;10.396;2023-08-17T14:02:48;17.20;99.90
2723;DHT22;1369;53.216;10.396;2023-08-17T14:05:14;17.30;99.90
2723;DHT22;1369;53.216;10.396;2023-08-17T14:07:39;17.30;99.90
2723;DHT22;1369;53.216;10.396;2023-08-17T14:10:05;17.30;99.90
2723;DHT22;1369;53.216;10.396;2023-08-17T14:12:31;17.40;99.90
2723;DHT22;1369;53.216;10.396;2023-08-17T14:14:56;17.40;99.90
2723;DHT22;1369;53.216;10.396;2023-08-17T14:17:22;17.40;99.90
2723;DHT22;1369;53.216;10.396;2023-08-17T14:19:48;17.50;99.90
2723;DHT22;1369;53.216;10.396;2023-08-17T14:22:13;17.60;99.90
2723;DHT22;1369;53.216;10.396;2023-08-17T14:24:39;17.50;99.90
2723;DHT22;1369;53.216;10.396;2023-08-17T14:27:04;17.60;99.90
2723;DHT22;1369;53.216;10.396;2023-08-17T14:29:30;17.70;99.90
2723;DHT22;1369;53.216;10.396;2023-08-17T14:31:55;17.70;99.90
2723;DHT22;1369;53.216;10.396;2023-08-17T14:34:21;17.70;99.90
2723;DHT22;1369;53.216;10.396;2023-08-17T14:36:47;17.70;99.90
2723;DHT22;1369;53.216;10.396;2023-08-17T14:39:12;17.70;99.90
2723;DHT22;1369;53.216;10.396;2023-08-17T14:41:38;17.80;99.90
2723;DHT22;1369;53.216;10.396;2023-08-17T14:44:04;17.90;99.90
2723;DHT22;1369;53.216;10.396;2023-08-17T14:46:30;18.00;99.90
2723;DHT22;1369;53.216;10.396;2023-08-17T14:48:55;18.00;99.90
2723;DHT22;1369;53.216;10.396;2023-08-17T14:51:21;18.10;99.90
2723;DHT22;1369;53.216;10.396;2023-08-17T14:53:46;18.20;99.90
2723;DHT22;1369;53.216;10.396;2023-08-17T14:56:12;18.20;99.90
2723;DHT22;1369;53.216;10.396;2023-08-17T14:58:38;18.20;99.90
2723;DHT22;1369;53.216;10.396;2023-08-17T15:01:03;18.20;99.90
2723;DHT22;1369;53.216;10.396;2023-08-17T15:03:29;18.20;99.90
2723;DHT22;1369;53.216;10.396;2023-08-17T15:05:54;18.00;99.90
2723;DHT22;1369;53.216;10.396;2023-08-17T15:08:20;17.90;99.90
2723;DHT22;1369;53.216;10.396;2023-08-17T15:10:46;18.00;99.90
2723;DHT22;1369;53.216;10.396;2023-08-17T15:13:14;18.00;99.90
2723;DHT22;1369;53.216;10.396;2023-08-17T15:15:41;18.00;99.90
2723;DHT22;1369;53.216;10.396;2023-08-17T15:18:10;17.90;99.90
2723;DHT22;1369;53.216;10.396;2023-08-17T15:20:36;17.90;99.90
2723;DHT22;1369;53.216;10.396;2023-08-17T15:23:01;17.90;99.90
2723;DHT22;1369;53.216;10.396;2023-08-17T15:25:28;17.90;99.90
2723;DHT22;1369;53.216;10.396;2023-08-17T15:27:53;17.80;99.90
2723;DHT22;1369;53.216;10.396;2023-08-17T15:30:19;17.80;99.90
2723;DHT22;1369;53.216;10.396;2023-08-17T15:32:45;17.70;99.90
2723;DHT22;1369;53.216;10.396;2023-08-17T15:35:11;17.80;99.90
2723;DHT22;1369;53.216;10.396;2023-08-17T15:37:40;17.80;99.90
2723;DHT22;1369;53.216;10.396;2023-08-17T15:40:06;17.80;99.90
2723;DHT22;1369;53.216;10.396;2023-08-17T15:42:32;17.80;99.90
2723;DHT22;1369;53.216;10.396;2023-08-17T15:44:58;17.90;99.90
2723;DHT22;1369;53.216;10.396;2023-08-17T15:47:24;17.90;99.90